North Dighton, MA

41° 51' 30"N, 71° 08' 44"W, Elevation 95 ft.
Eastern Time

Hourly observations for the last 72 hours

Date Time Temperature (°F) Humi-
dity

(%)
Wind
(mph)
Pressure Rain (in) Sun
(W/m2)
UV ET
(in)
Air Dew 6 Hour 1 Hr 3 Hr 6 Hr Day
Alt
(in)
Sea
Level

(mb)
Max Min
25 13:00 46.8 28.1 48 NW 2 G 10 30.05 1017.5 0.00 234 2.3 0.022
25 12:00 44.4 29.7 56 NW 3 G 6 30.06 1017.8 0.00 281 2.0 0.017
25 11:00 43.3 30.4 60 NW 2 G 8 30.06 1017.8 0.00 216 1.3 0.013
25 10:00 43.2 31.1 62 NW 2 G 10 30.04 1017.4 0.00 221 1.0 0.009
25 09:00 43.3 29.5 58 N 3 G 12 30.03 1017.0 0.00 123 0.0 0.006
25 08:00 44.3 30.0 44.4 36.7 57 WNW 5 G 9 30.01 1016.2 0.00 39 0.0 0.005
25 07:00 41.6 30.3 64 W 3 G 6 29.98 1015.4 0.00 11 0.0 0.005
25 06:00 37.2 32.5 83 WSW 1 G 2 29.97 1014.8 0.00 0 0.0 0.005
25 05:00 38.2 32.3 79 Calm 29.96 1014.6 0.00 0 0.0 0.004
25 04:00 40.6 31.6 70 WSW 0 G 2 29.96 1014.7 0.00 0 0.0 0.003
25 03:00 41.8 31.7 67 WSW 2 G 4 29.96 1014.6 0.00 0 0.0 0.002
25 02:00 43.3 31.6 46.8 42.6 63 WSW 1 G 3 29.97 1014.8 0.00 0 0.0 0.001
25 01:00 42.9 30.4 61 W 1 G 2 29.97 1014.8 0.00 0 0.0 0.000
25 00:00 45.5 29.8 54 W 2 G 6 29.97 1014.9 0.00 0 0.0 0.135
24 23:00 45.1 29.5 54 WSW 2 G 7 29.97 1014.9 0.00 0 0.0 0.133
24 22:00 44.3 29.2 55 WSW 2 G 6 29.97 1014.9 0.00 0 0.0 0.131
24 21:00 45.9 27.8 49 SSW 2 G 8 29.97 1015.0 0.00 0 0.0 0.129
24 20:00 46.7 28.6 58.1 46.6 49 SW 3 G 13 29.96 1014.7 0.00 0 0.0 0.127
24 19:00 46.7 27.0 46 SW 5 G 9 29.95 1014.3 0.00 0 0.0 0.125
24 18:00 48.2 26.2 42 SW 6 G 15 29.94 1013.8 0.00 35 0.0 0.121
24 17:00 48.1 28.8 47 S 7 G 15 29.95 1014.4 0.00 98 0.0 0.116
24 16:00 49.3 27.8 43 S 6 G 18 29.97 1014.8 0.00 120 0.5 0.109
24 15:00 56.0 24.2 29 SW 5 G 17 29.97 1014.8 0.00 355 1.9 0.092
24 14:00 56.6 21.2 56.9 30.6 25 W 8 G 16 29.99 1015.7 0.00 809 4.0 0.072
24 13:00 55.3 23.6 29 WNW 9 G 16 30.01 1016.4 0.00 759 4.3 0.052
24 12:00 51.5 24.8 35 W 7 G 16 30.04 1017.3 0.00 698 3.8 0.035
24 11:00 47.8 24.0 39 W 9 G 13 30.06 1018.1 0.00 715 2.9 0.022
24 10:00 43.1 23.2 45 W 10 G 15 30.08 1018.6 0.00 571 1.8 0.012
24 09:00 38.6 23.4 54 WNW 6 G 9 30.07 1018.2 0.00 309 0.9 0.008
24 08:00 30.6 24.3 31.7 24.2 77 WSW 1 G 2 30.07 1018.4 0.00 155 0.0 0.007
24 07:00 24.6 19.9 82 SW 0 G 2 30.07 1018.3 0.00 12 0.0 0.007
24 06:00 25.5 20.2 80 SW 1 G 3 30.05 1017.7 0.00 0 0.0 0.007
24 05:00 26.5 18.7 72 WSW 0 G 2 30.04 1017.3 0.00 0 0.0 0.006
24 04:00 28.5 18.6 66 W 0 G 3 30.03 1016.9 0.00 0 0.0 0.005
24 03:00 29.7 17.1 59 W 2 G 4 30.02 1016.7 0.00 0 0.0 0.004
24 02:00 31.7 17.0 38.7 31.7 54 W 10 G 15 30.01 1016.3 0.00 0 0.0 0.002
24 01:00 32.3 17.5 54 WNW 10 G 18 30.00 1015.9 0.00 0 0.0 0.000
24 00:00 32.6 17.8 54 WNW 9 G 13 29.98 1015.2 0.01 0 0.0 0.135
23 23:00 33.9 18.6 53 W 8 G 17 29.95 1014.4 0.01 0 0.0 0.132
23 22:00 35.3 19.9 53 WNW 12 G 18 29.94 1013.8 0.01 0 0.0 0.129
23 21:00 37.3 21.7 53 WNW 11 G 16 29.90 1012.4 0.01 0 0.0 0.126
23 20:00 38.7 23.0 46.7 38.7 53 WNW 13 G 19 29.86 1011.2 0.01 0 0.0 0.123
23 19:00 40.7 25.8 55 WNW 9 G 16 29.82 1009.7 0.01 5 0.0 0.119
23 18:00 43.7 27.7 53 W 13 G 21 29.76 1008.0 0.01 165 0.0 0.111
23 17:00 45.9 29.3 52 WNW 14 G 24 29.73 1006.7 0.01 364 0.6 0.099
23 16:00 45.2 30.0 55 WNW 11 G 27 29.69 1005.4 0.01 555 1.3 0.086
23 15:00 43.3 28.7 56 W 17 G 25 29.67 1004.9 0.01 606 2.0 0.073
23 14:00 43.7 28.6 44.8 32.2 55 W 15 G 30 29.65 1004.1 0.01 747 2.8 0.057
23 13:00 43.6 29.4 57 WNW 17 G 31 29.62 1002.9 0.01 613 2.9 0.041
23 12:00 41.9 29.4 61 WNW 19 G 28 29.59 1002.2 0.01 773 3.1 0.027
23 11:00 39.3 28.9 66 WNW 19 G 29 29.57 1001.3 0.01 677 2.4 0.016
23 10:00 36.7 28.2 71 WNW 9 G 22 29.54 1000.3 0.01 550 1.6 0.010
23 09:00 33.5 26.8 76 WNW 11 G 22 29.50 998.9 0.01 142 0.5 0.008
23 08:00 32.2 26.7 36.7 30.6 80 WNW 19 G 26 29.45 997.3 0.01 30 0.0 0.007
23 07:00 30.8 27.7 88 WNW 14 G 26 29.40 995.5 0.01 21 0.0 0.006
23 06:00 31.4 27.7 86 WNW 17 G 30 29.35 993.9 0.01 0 0.0 0.005
23 05:00 31.2 28.6 90 W 15 G 25 29.32 992.9 0.01 0 0.0 0.004
23 04:00 31.9 29.6 91 W 14 G 24 29.30 992.1 0.01 0 0.0 0.003
23 03:00 33.5 30.0 87 W 12 G 24 29.29 991.8 0.01 0 0.0 0.002
23 02:00 36.7 31.1 41.5 36.7 80 W 12 G 26 29.27 991.3 0.01 0.03 0.01 0 0.0 0.001
23 01:00 37.6 33.2 84 W 12 G 25 29.25 990.7 0.01 0.01 0 0.0 0.000
23 00:00 38.1 34.6 87 W 14 G 27 29.24 990.2 1.09 0 0.0 0.024
22 23:00 38.3 35.1 88 W 10 G 19 29.24 990.2 0.01 0.02 1.09 0 0.0 0.023
22 22:00 39.4 34.7 83 W 12 G 19 29.24 990.1 0.01 1.08 0 0.0 0.022
22 21:00 40.7 35.0 80 W 10 G 21 29.21 989.2 1.07 0 0.0 0.021
22 20:00 41.5 35.8 42.8 34.3 80 WNW 11 G 20 29.18 988.4 0.09 1.07 0 0.0 0.020
22 19:00 42.7 36.6 79 W 9 G 24 29.16 987.5 1.07 0 0.0 0.018
22 18:00 42.7 37.3 81 W 15 G 22 29.13 986.5 1.07 40 0.0 0.016
22 17:00 41.7 37.8 86 W 12 G 26 29.11 985.7 0.09 1.07 132 0.0 0.013
22 16:00 41.7 39.5 92 W 11 G 18 29.10 985.3 0.01 1.07 207 0.7 0.009
22 15:00 38.0 36.7 95 W 8 G 13 29.09 985.3 0.08 1.06 116 0.5 0.007
22 14:00 34.4 32.9 39.6 34.3 94 W 7 G 12 29.10 985.6 0.08 0.24 0.33 0.98 127 0.6 0.006

Data generated by WxSolution Version 1.9.1.7, Build 2018.11.24.